createdAt,value
2023-01-20T00:01:37.623Z,100890.34
2023-01-20T00:04:06.492Z,100898.84
2023-01-20T00:06:36.604Z,100900.53
2023-01-20T00:09:06.337Z,100906.47
2023-01-20T00:11:35.121Z,100895.34
2023-01-20T00:14:04.073Z,100900.47
2023-01-20T00:16:33.618Z,100898.75
2023-01-20T00:19:01.922Z,100908.13
2023-01-20T00:21:30.244Z,100904.72
2023-01-20T00:23:59.940Z,100905.53
2023-01-20T00:26:28.388Z,100901.28
2023-01-20T00:28:58.131Z,100913.22
2023-01-20T00:31:28.675Z,100916.59
2023-01-20T00:33:58.880Z,100916.53
2023-01-20T00:36:29.328Z,100914.84
2023-01-20T00:38:57.626Z,100921.63
2023-01-20T00:41:27.358Z,100929.31
2023-01-20T00:43:55.607Z,100930.19
2023-01-20T00:46:24.173Z,100933.63
2023-01-20T00:48:52.491Z,100924.25
2023-01-20T00:51:21.201Z,100940.47
2023-01-20T00:53:49.467Z,100932.78
2023-01-20T00:56:18.004Z,100942.97
2023-01-20T00:58:47.819Z,100942.91
2023-01-20T01:01:16.386Z,100940.34
2023-01-20T01:03:45.740Z,100933.47
2023-01-20T01:06:15.707Z,100946.22
2023-01-20T01:08:44.499Z,100937.72
2023-01-20T01:11:14.393Z,100949.66
2023-01-20T01:13:43.051Z,100934.31
2023-01-20T01:16:14.289Z,100954.72
2023-01-20T01:18:43.376Z,100954.75
2023-01-20T01:21:14.451Z,100957.31
2023-01-20T01:23:42.769Z,100958.19
2023-01-20T01:26:11.682Z,100959.91
2023-01-20T01:28:40.630Z,100967.56
2023-01-20T01:31:10.250Z,100951.34
2023-01-20T01:33:40.295Z,100955.50
2023-01-20T01:36:12.265Z,100963.06
2023-01-20T01:38:40.815Z,100958.78
2023-01-20T01:41:09.190Z,100968.13
2023-01-20T01:43:39.589Z,100967.31
2023-01-20T01:46:08.656Z,100971.56
2023-01-20T01:48:41.587Z,100971.56
2023-01-20T01:51:15.636Z,100985.22
2023-01-20T01:53:48.751Z,100986.91
2023-01-20T01:56:17.973Z,100988.59
2023-01-20T01:58:50.355Z,100983.50
2023-01-20T02:01:19.199Z,100991.16
2023-01-20T02:03:55.999Z,100991.16
2023-01-20T02:06:27.269Z,100998.84
2023-01-20T02:08:56.168Z,100996.28
2023-01-20T02:11:24.696Z,100999.69
2023-01-20T02:13:54.265Z,101002.28
2023-01-20T02:16:35.178Z,101008.25
2023-01-20T02:19:30.217Z,101015.06
2023-01-20T02:22:12.334Z,101009.94
2023-01-20T02:25:06.873Z,101014.19
2023-01-20T02:27:53.743Z,101021.03
2023-01-20T02:30:39.691Z,101013.34
2023-01-20T02:33:14.434Z,101024.41
2023-01-20T02:35:47.336Z,101026.91
2023-01-20T02:38:24.984Z,101030.34
2023-01-20T02:41:02.718Z,101034.63
2023-01-20T02:43:38.257Z,101033.78
2023-01-20T02:46:12.744Z,101040.63
2023-01-20T02:48:45.991Z,101043.16
2023-01-20T02:51:19.263Z,101041.50
2023-01-20T02:53:51.907Z,101031.28
2023-01-20T02:56:24.816Z,101044.94
2023-01-20T02:58:57.958Z,101035.53
2023-01-20T03:01:31.957Z,101033.81
2023-01-20T03:04:05.242Z,101033.03
2023-01-20T03:06:37.205Z,101042.47
2023-01-20T03:09:10.944Z,101043.38
2023-01-20T03:11:42.531Z,101040.81
2023-01-20T03:14:14.193Z,101036.56
2023-01-20T03:16:43.450Z,101044.22
2023-01-20T03:19:13.341Z,101042.47
2023-01-20T03:21:42.002Z,101045.03
2023-01-20T03:24:10.924Z,101044.19
2023-01-20T03:26:40.134Z,101039.91
2023-01-20T03:29:11.747Z,101046.69
2023-01-20T03:31:45.021Z,101050.94
2023-01-20T03:34:19.563Z,101048.38
2023-01-20T03:36:48.928Z,101049.19
2023-01-20T03:39:18.259Z,101056.81
2023-01-20T03:41:58.322Z,101052.59
2023-01-20T03:44:35.905Z,101061.09
2023-01-20T03:47:10.202Z,101061.06
2023-01-20T03:49:47.169Z,101061.03
2023-01-20T03:52:23.943Z,101058.50
2023-01-20T03:55:17.603Z,101061.03
2023-01-20T03:57:53.145Z,101054.22
2023-01-20T04:00:25.192Z,101049.06
2023-01-20T04:02:55.611Z,101055.91
2023-01-20T04:05:26.689Z,101055.97
2023-01-20T04:07:59.134Z,101052.59
2023-01-20T04:10:31.365Z,101061.06
2023-01-20T04:12:59.732Z,101053.38
2023-01-20T04:15:30.593Z,101053.41
2023-01-20T04:17:59.001Z,101047.47
2023-01-20T04:20:28.951Z,101050.88
2023-01-20T04:23:00.448Z,101061.97
2023-01-20T04:25:31.256Z,101057.75
2023-01-20T04:27:59.775Z,101061.16
2023-01-20T04:30:28.159Z,101062.03
2023-01-20T04:32:56.592Z,101071.38
2023-01-20T04:35:25.184Z,101079.06
2023-01-20T04:37:55.349Z,101069.72
2023-01-20T04:40:23.723Z,101077.41
2023-01-20T04:42:52.034Z,101078.28
2023-01-20T04:45:20.958Z,101077.44
2023-01-20T04:47:49.657Z,101078.31
2023-01-20T04:50:18.549Z,101074.03
2023-01-20T04:52:47.174Z,101079.09
2023-01-20T04:55:17.407Z,101085.00
2023-01-20T04:57:48.621Z,101090.13
2023-01-20T05:00:20.227Z,101088.38
2023-01-20T05:02:48.923Z,101084.09
2023-01-20T05:05:17.946Z,101088.41
2023-01-20T05:07:46.638Z,101084.25
2023-01-20T05:10:16.683Z,101079.22
2023-01-20T05:12:45.316Z,101082.69
2023-01-20T05:15:13.902Z,101081.91
2023-01-20T05:17:42.352Z,101088.75
2023-01-20T05:20:12.755Z,101088.75
2023-01-20T05:22:41.458Z,101083.63
2023-01-20T05:25:10.589Z,101089.56
2023-01-20T05:27:40.556Z,101097.28
2023-01-20T05:30:10.544Z,101088.78
2023-01-20T05:32:39.217Z,101095.69
2023-01-20T05:35:08.841Z,101088.13
2023-01-20T05:37:37.107Z,101087.31
2023-01-20T05:40:06.557Z,101084.81
2023-01-20T05:42:35.145Z,101084.88
2023-01-20T05:45:05.867Z,101090.91
2023-01-20T05:47:34.235Z,101096.06
2023-01-20T05:50:02.808Z,101087.53
2023-01-20T05:52:31.080Z,101090.13
2023-01-20T05:54:59.437Z,101092.72
2023-01-20T05:57:28.491Z,101095.31
2023-01-20T05:59:56.750Z,101097.91
2023-01-20T06:02:26.565Z,101097.94
2023-01-20T06:04:56.171Z,101099.63
2023-01-20T06:07:24.726Z,101101.34
2023-01-20T06:09:53.120Z,101099.63
2023-01-20T06:12:21.496Z,101102.16
2023-01-20T06:14:50.093Z,101099.63
2023-01-20T06:17:18.546Z,101105.59
2023-01-20T06:19:49.744Z,101103.06
2023-01-20T06:22:19.834Z,101108.25
2023-01-20T06:24:48.367Z,101106.56
2023-01-20T06:27:32.473Z,101114.25
2023-01-20T06:30:01.079Z,101111.69
2023-01-20T06:32:29.431Z,101109.94
2023-01-20T06:34:59.463Z,101112.50
2023-01-20T06:37:28.079Z,101116.78
2023-01-20T06:39:56.338Z,101119.31
2023-01-20T06:42:24.630Z,101112.50
2023-01-20T06:44:52.907Z,101113.38
2023-01-20T06:47:21.223Z,101113.44
2023-01-20T06:49:49.590Z,101117.75
2023-01-20T06:52:19.587Z,101117.78
2023-01-20T06:54:48.193Z,101114.41
2023-01-20T06:57:16.549Z,101114.41
2023-01-20T06:59:44.868Z,101112.66
2023-01-20T07:02:13.641Z,101118.63
2023-01-20T07:04:42.711Z,101116.06
2023-01-20T07:07:13.913Z,101116.03
2023-01-20T07:09:43.589Z,101123.72
2023-01-20T07:12:11.868Z,101123.69
2023-01-20T07:14:40.182Z,101121.09
2023-01-20T07:17:12.851Z,101132.19
2023-01-20T07:19:41.248Z,101135.59
2023-01-20T07:22:09.573Z,101130.47
2023-01-20T07:24:38.056Z,101134.75
2023-01-20T07:27:08.002Z,101133.97
2023-01-20T07:29:36.283Z,101139.13
2023-01-20T07:32:04.655Z,101137.44
2023-01-20T07:34:33.080Z,101143.44
2023-01-20T07:37:02.714Z,101140.94
2023-01-20T07:39:31.110Z,101130.69
2023-01-20T07:42:00.156Z,101136.69
2023-01-20T07:44:30.024Z,101148.66
2023-01-20T07:46:58.991Z,101132.47
2023-01-20T07:49:27.450Z,101140.13
2023-01-20T07:51:55.917Z,101144.44
2023-01-20T07:54:24.448Z,101132.50
2023-01-20T07:56:52.857Z,101143.59
2023-01-20T07:59:21.284Z,101141.03
2023-01-20T08:01:51.128Z,101143.63
2023-01-20T08:04:19.753Z,101148.75
2023-01-20T08:06:48.273Z,101149.59
2023-01-20T08:09:16.620Z,101159.00
2023-01-20T08:11:44.943Z,101158.13
2023-01-20T08:14:13.249Z,101168.38
2023-01-20T08:16:41.485Z,101170.06
2023-01-20T08:19:11.204Z,101175.22
2023-01-20T08:21:39.416Z,101175.22
2023-01-20T08:24:07.930Z,101178.66
2023-01-20T08:26:36.199Z,101176.09
2023-01-20T08:29:05.154Z,101182.09
2023-01-20T08:31:33.644Z,101185.56
2023-01-20T08:34:02.294Z,101186.41
2023-01-20T08:36:34.667Z,101188.97
2023-01-20T08:39:06.205Z,101189.03
2023-01-20T08:41:36.753Z,101189.06
2023-01-20T08:44:07.596Z,101191.63
2023-01-20T08:46:39.862Z,101198.47
2023-01-20T08:49:11.065Z,101206.16
2023-01-20T08:51:41.397Z,101201.91
2023-01-20T08:54:09.925Z,101210.47
2023-01-20T08:56:38.489Z,101210.47
2023-01-20T08:59:06.731Z,101211.34
2023-01-20T09:01:38.053Z,101209.66
2023-01-20T09:04:07.685Z,101214.78
2023-01-20T09:06:43.421Z,101216.53
2023-01-20T09:09:12.919Z,101218.22
2023-01-20T09:11:44.878Z,101225.94
2023-01-20T09:14:13.261Z,101225.09
2023-01-20T09:16:41.472Z,101224.25
2023-01-20T09:19:09.680Z,101223.44
2023-01-20T09:21:37.890Z,101228.59
2023-01-20T09:24:08.570Z,101233.72
2023-01-20T09:26:39.612Z,101232.00
2023-01-20T09:29:12.576Z,101241.41
2023-01-20T09:31:44.605Z,101244.84
2023-01-20T09:34:19.304Z,101244.00
2023-01-20T09:36:51.583Z,101246.56
2023-01-20T09:39:39.511Z,101238.88
2023-01-20T09:42:41.724Z,101247.44
2023-01-20T09:45:24.942Z,101251.75
2023-01-20T09:48:00.076Z,101256.03
2023-01-20T09:50:54.257Z,101246.63
2023-01-20T09:53:35.905Z,101253.47
2023-01-20T09:56:11.752Z,101251.75
2023-01-20T09:58:45.943Z,101261.19
2023-01-20T10:01:20.614Z,101248.34
2023-01-20T10:03:56.543Z,101250.91
2023-01-20T10:06:30.989Z,101256.06
2023-01-20T10:09:06.249Z,101255.19
2023-01-20T10:11:42.388Z,101259.47
2023-01-20T10:14:20.161Z,101260.34
2023-01-20T10:16:55.420Z,101255.22
2023-01-20T10:19:31.029Z,101259.50
2023-01-20T10:22:08.438Z,101273.19
2023-01-20T10:24:40.154Z,101276.59
2023-01-20T10:27:09.866Z,101274.88
2023-01-20T10:29:40.422Z,101276.56
2023-01-20T10:32:18.169Z,101274.81
2023-01-20T10:34:49.057Z,101275.63
2023-01-20T10:37:17.582Z,101281.59
2023-01-20T10:39:53.139Z,101287.56
2023-01-20T10:42:24.295Z,101283.22
2023-01-20T10:44:53.842Z,101281.41
2023-01-20T10:47:29.243Z,101277.13
2023-01-20T10:50:21.299Z,101272.84
2023-01-20T10:53:13.560Z,101269.41
2023-01-20T10:55:57.138Z,101275.41
2023-01-20T10:58:30.183Z,101275.34
2023-01-20T11:01:03.013Z,101273.59
2023-01-20T11:03:37.444Z,101277.03
2023-01-20T11:06:07.634Z,101277.88
2023-01-20T11:08:36.125Z,101262.50
2023-01-20T11:11:13.147Z,101263.31
2023-01-20T11:13:47.429Z,101267.63
2023-01-20T11:16:20.462Z,101269.34
2023-01-20T11:18:58.312Z,101270.22
2023-01-20T11:21:29.307Z,101265.84
2023-01-20T11:23:58.674Z,101263.25
2023-01-20T11:26:29.132Z,101261.53
2023-01-20T11:29:01.223Z,101259.66
2023-01-20T11:31:39.743Z,101251.84
2023-01-20T11:34:23.439Z,101251.78
2023-01-20T11:36:53.212Z,101244.97
2023-01-20T11:39:57.761Z,101244.91
2023-01-20T11:42:27.938Z,101246.63
2023-01-20T11:45:15.193Z,101249.09
2023-01-20T11:48:01.622Z,101238.84
2023-01-20T11:50:58.905Z,101244.03
2023-01-20T11:53:28.645Z,101235.47
2023-01-20T11:56:18.758Z,101232.88
2023-01-20T11:59:12.648Z,101238.09
2023-01-20T12:02:23.409Z,101236.34
2023-01-20T12:05:25.329Z,101234.53
2023-01-20T12:08:06.708Z,101232.75
2023-01-20T12:14:33.570Z,101221.47
2023-01-20T12:17:41.420Z,101224.03
2023-01-20T12:20:54.942Z,101218.91
2023-01-20T12:23:51.917Z,101217.09
2023-01-20T12:30:02.369Z,101218.78
2023-01-20T12:37:07.208Z,101211.72
2023-01-20T12:40:10.821Z,101196.09
2023-01-20T12:55:29.704Z,101195.06
2023-01-20T12:58:36.085Z,101194.19
2023-01-20T13:01:47.226Z,101194.16
2023-01-20T13:05:44.971Z,101200.91
2023-01-20T13:09:34.046Z,101205.06
2023-01-20T13:12:56.661Z,101202.34
2023-01-20T13:16:03.476Z,101196.31
2023-01-20T13:19:08.725Z,101194.59
2023-01-20T13:22:12.087Z,101195.50
2023-01-20T13:25:17.347Z,101191.41
2023-01-20T13:28:20.640Z,101182.00
2023-01-20T13:31:22.394Z,101192.28
2023-01-20T13:34:27.232Z,101176.97
2023-01-20T13:37:34.057Z,101182.25
2023-01-20T13:44:42.581Z,101195.31
2023-01-20T13:51:51.367Z,101177.31
2023-01-20T13:54:57.079Z,101173.75
2023-01-20T13:57:58.563Z,101181.44
2023-01-20T14:01:02.622Z,101190.09
2023-01-20T14:04:08.739Z,101186.56
2023-01-20T14:08:05.453Z,101187.47
2023-01-20T14:11:18.415Z,101195.13
2023-01-20T14:14:24.789Z,101192.50
2023-01-20T14:17:27.758Z,101190.66
2023-01-20T14:20:30.535Z,101190.69
2023-01-20T14:27:42.232Z,101190.69
2023-01-20T14:31:34.443Z,101192.41
2023-01-20T14:43:09.345Z,101198.53
2023-01-20T14:46:06.889Z,101203.59
2023-01-20T14:49:15.827Z,101201.56
2023-01-20T15:00:28.465Z,101205.84
2023-01-20T15:03:33.239Z,101208.25
2023-01-20T15:10:41.595Z,101205.81
2023-01-20T15:17:52.634Z,101208.38
2023-01-20T18:25:56.591Z,101353.63
2023-01-20T18:28:24.979Z,101360.50
2023-01-20T18:30:53.505Z,101363.97
2023-01-20T18:43:43.444Z,101373.41
2023-01-20T18:59:03.529Z,101398.28
2023-01-20T19:28:00.160Z,101428.25
2023-01-20T19:30:30.396Z,101420.50
2023-01-20T19:33:02.221Z,101437.63
2023-01-20T19:35:35.001Z,101429.03
2023-01-20T19:38:09.471Z,101437.63
2023-01-20T19:49:58.279Z,101444.50
2023-01-20T19:52:26.708Z,101442.84
2023-01-20T19:54:55.020Z,101450.56
2023-01-20T19:57:23.352Z,101448.84
2023-01-20T19:59:51.653Z,101451.44
2023-01-20T20:02:20.167Z,101462.56
2023-01-20T20:04:48.471Z,101464.31
2023-01-20T20:07:18.153Z,101466.88
2023-01-20T20:09:46.503Z,101466.00
2023-01-20T20:12:14.773Z,101472.88
2023-01-20T20:14:43.099Z,101482.28
2023-01-20T20:17:11.437Z,101477.13
2023-01-20T20:19:39.836Z,101473.72
2023-01-20T20:22:08.178Z,101488.31
2023-01-20T20:24:37.901Z,101489.16
2023-01-20T20:27:06.282Z,101490.03
2023-01-20T20:29:34.598Z,101498.59
2023-01-20T20:32:03.028Z,101498.63
2023-01-20T20:34:31.400Z,101502.03
2023-01-20T20:36:59.737Z,101501.16
2023-01-20T20:39:28.268Z,101500.31
2023-01-20T20:42:13.713Z,101505.47
2023-01-20T20:44:57.354Z,101514.91
2023-01-20T20:47:32.528Z,101517.47
2023-01-20T20:50:15.750Z,101512.31
2023-01-20T20:52:50.964Z,101516.59
2023-01-20T20:55:35.562Z,101514.91
2023-01-20T21:19:01.817Z,101526.06
2023-01-20T21:21:45.800Z,101523.47
2023-01-20T21:24:31.660Z,101530.34
2023-01-20T21:27:24.570Z,101530.34
2023-01-20T21:33:49.897Z,101533.78
2023-01-20T21:36:33.588Z,101545.78
2023-01-20T21:39:30.138Z,101550.06
2023-01-20T21:42:41.539Z,101539.78
2023-01-20T21:45:52.203Z,101556.94
2023-01-20T21:49:07.893Z,101551.78
2023-01-20T21:52:15.878Z,101562.94
2023-01-20T21:55:10.628Z,101566.34
2023-01-20T21:57:54.113Z,101569.72
2023-01-20T22:01:26.353Z,101562.88
2023-01-20T22:04:19.745Z,101574.88
2023-01-20T22:07:33.333Z,101578.31
2023-01-20T22:10:34.041Z,101589.44
2023-01-20T22:16:49.156Z,101586.00
2023-01-20T22:19:31.284Z,101588.53
2023-01-20T22:22:24.223Z,101589.41
2023-01-20T22:25:15.367Z,101590.28
2023-01-20T22:28:00.712Z,101587.69
2023-01-20T22:30:39.928Z,101598.84
2023-01-20T22:33:17.059Z,101609.13
2023-01-20T22:35:57.550Z,101609.16
2023-01-20T22:38:38.511Z,101610.03
2023-01-20T22:41:13.928Z,101612.59
2023-01-20T22:43:52.310Z,101604.91
2023-01-20T22:46:39.616Z,101624.63
2023-01-20T22:49:12.848Z,101615.19
2023-01-20T22:51:46.450Z,101620.38
2023-01-20T22:54:30.150Z,101619.53
2023-01-20T23:21:14.794Z,101649.16
2023-01-20T23:37:49.767Z,101666.56
2023-01-20T23:41:26.897Z,101664.78
2023-01-20T23:52:56.978Z,101663.78
2023-01-20T23:55:47.899Z,101660.34
2023-01-20T23:58:41.417Z,101657.75
